Time;durP1;ratioP1;P1;durP2;ratioP2;P2;SDS_P1;SDS_P2;PMS_P1;PMS_P2;Temp;Humidity;BMP_temperature;BMP_pressure;BME280_temperature;BME280_humidity;BME280_pressure;Samples;Min_cycle;Max_cycle;Signal;HPM_P1;HPM_P2
2022/02/10 00:05:43;;;;;;;13.70;9.77;;;;;;;;;;6307646;28;20222;-65
2022/02/10 00:16:20;;;;;;;15.17;8.70;;;;;;;;;;6304418;28;20227;-65
2022/02/10 00:20:06;;;;;;;13.93;9.80;;;;;;;;;;6307238;28;20623;-65
2022/02/10 00:23:40;;;;;;;23.47;10.17;;;;;;;;;;6305802;28;20250;-65
2022/02/10 00:34:23;;;;;;;16.27;8.80;;;;;;;;;;6305741;28;20242;-65
2022/02/10 00:37:57;;;;;;;13.17;9.07;;;;;;;;;;6306915;28;20223;-65
2022/02/10 00:41:18;;;;;;;20.53;9.77;;;;;;;;;;6281951;28;20226;-65
2022/02/10 00:44:38;;;;;;;12.70;10.37;;;;;;;;;;6307370;28;20226;-66
2022/02/10 00:48:02;;;;;;;18.20;10.97;;;;;;;;;;6311974;28;20654;-65
2022/02/10 00:51:22;;;;;;;14.13;9.57;;;;;;;;;;6306935;28;20620;-65
2022/02/10 00:54:44;;;;;;;18.37;11.00;;;;;;;;;;6308566;28;20234;-64
2022/02/10 00:58:08;;;;;;;15.50;11.70;;;;;;;;;;6305532;28;20633;-65
2022/02/10 01:12:43;;;;;;;16.37;12.40;;;;;;;;;;6308850;28;20230;-64
2022/02/10 01:30:51;;;;;;;19.03;13.00;;;;;;;;;;6305813;28;20226;-64
2022/02/10 01:34:11;;;;;;;14.30;12.87;;;;;;;;;;6305726;28;20706;-66
2022/02/10 01:37:32;;;;;;;15.70;11.90;;;;;;;;;;6287600;28;20517;-65
2022/02/10 02:06:44;;;;;;;16.40;13.20;;;;;;;;;;6300965;28;20230;-65
2022/02/10 02:10:04;;;;;;;19.43;14.47;;;;;;;;;;6298762;28;20975;-65
2022/02/10 02:13:25;;;;;;;18.57;14.77;;;;;;;;;;6302015;28;20681;-64
2022/02/10 02:16:46;;;;;;;18.00;14.10;;;;;;;;;;6300403;28;20301;-64
2022/02/10 02:20:07;;;;;;;21.17;15.00;;;;;;;;;;6300398;28;20233;-63
2022/02/10 02:23:30;;;;;;;20.57;15.33;;;;;;;;;;6301509;28;20230;-64
2022/02/10 02:26:52;;;;;;;18.73;14.60;;;;;;;;;;6300845;28;20222;-64
2022/02/10 02:30:22;;;;;;;23.43;15.70;;;;;;;;;;6304488;28;20230;-65
2022/02/10 03:10:27;;;;;;;9.43;7.20;;;;;;;;;;6165946;28;20765;-65
2022/02/10 03:13:52;;;;;;;9.80;6.37;;;;;;;;;;6167409;28;20517;-65
2022/02/10 03:17:39;;;;;;;8.83;5.77;;;;;;;;;;6174177;28;20235;-66
2022/02/10 03:21:22;;;;;;;7.90;6.80;;;;;;;;;;6170326;28;20242;-64
2022/02/10 04:01:39;;;;;;;7.67;4.97;;;;;;;;;;6169658;28;20226;-64
2022/02/10 04:05:08;;;;;;;7.73;5.33;;;;;;;;;;6172001;28;20235;-64
2022/02/10 04:12:37;;;;;;;11.37;4.87;;;;;;;;;;6180522;28;20826;-64
2022/02/10 04:16:09;;;;;;;8.73;5.40;;;;;;;;;;6191646;28;20611;-65
2022/02/10 04:19:55;;;;;;;10.43;4.90;;;;;;;;;;6191904;28;20665;-65
2022/02/10 04:23:28;;;;;;;9.27;5.20;;;;;;;;;;6197634;28;20242;-65
2022/02/10 04:26:57;;;;;;;12.23;6.87;;;;;;;;;;6193421;28;20233;-64
2022/02/10 04:30:35;;;;;;;9.27;6.00;;;;;;;;;;6192142;28;20224;-65
2022/02/10 04:55:59;;;;;;;9.30;6.37;;;;;;;;;;6190786;28;20233;-64
2022/02/10 04:59:34;;;;;;;7.53;6.60;;;;;;;;;;6188382;28;20320;-64
2022/02/10 05:17:55;;;;;;;12.00;8.67;;;;;;;;;;6189736;28;20226;-65
2022/02/10 05:32:26;;;;;;;10.37;8.07;;;;;;;;;;6191440;28;20229;-64
2022/02/10 05:35:50;;;;;;;9.33;8.30;;;;;;;;;;6193435;28;20238;-64
2022/02/10 05:39:15;;;;;;;11.50;9.00;;;;;;;;;;6196232;28;20241;-65
2022/02/10 05:46:20;;;;;;;8.90;6.27;;;;;;;;;;6189989;28;20878;-65
2022/02/10 05:53:55;;;;;;;7.13;6.53;;;;;;;;;;6152354;28;20225;-65
2022/02/10 05:57:30;;;;;;;6.93;6.23;;;;;;;;;;6191442;28;20689;-65
2022/02/10 06:01:42;;;;;;;6.30;5.70;;;;;;;;;;6187890;28;20233;-65
2022/02/10 06:52:19;;;;;;;5.73;4.53;;;;;;;;;;6179793;28;20237;-67
2022/02/10 06:56:13;;;;;;;4.00;3.67;;;;;;;;;;6182411;28;20244;-69
2022/02/10 07:03:50;;;;;;;5.30;4.87;;;;;;;;;;6199174;28;20485;-67
2022/02/10 07:11:25;;;;;;;4.93;4.53;;;;;;;;;;6191984;28;20253;-67
2022/02/10 07:47:58;;;;;;;6.57;5.10;;;;;;;;;;6188792;28;20292;-64
2022/02/10 07:58:41;;;;;;;4.00;3.67;;;;;;;;;;6284918;27;21169;-66
2022/02/10 08:49:53;;;;;;;7.07;4.87;;;;;;;;;;6280839;28;20223;-67
2022/02/10 08:57:07;;;;;;;4.40;4.00;;;;;;;;;;6223682;28;20233;-66
2022/02/10 09:04:13;;;;;;;5.07;4.67;;;;;;;;;;6210953;27;20743;-68
2022/02/10 09:07:53;;;;;;;8.97;5.10;;;;;;;;;;6200125;27;20261;-67
2022/02/10 09:15:28;;;;;;;8.30;5.47;;;;;;;;;;6208316;28;20234;-68
2022/02/10 09:55:57;;;;;;;8.80;7.90;;;;;;;;;;6167087;28;20662;-67
2022/02/10 09:59:34;;;;;;;12.67;8.77;;;;;;;;;;6188640;28;20234;-68
2022/02/10 10:03:09;;;;;;;10.07;8.70;;;;;;;;;;6174993;28;20229;-67
2022/02/10 10:06:49;;;;;;;10.53;7.80;;;;;;;;;;6189510;28;20738;-66
2022/02/10 10:14:07;;;;;;;9.47;8.47;;;;;;;;;;6194072;28;20230;-66
2022/02/10 10:17:48;;;;;;;10.40;7.33;;;;;;;;;;6186330;28;20253;-66
2022/02/10 10:21:26;;;;;;;7.70;7.07;;;;;;;;;;6184086;28;20222;-64
2022/02/10 10:25:09;;;;;;;10.07;7.27;;;;;;;;;;6189223;28;20251;-67
2022/02/10 10:50:33;;;;;;;10.70;7.33;;;;;;;;;;6204972;28;20229;-67
2022/02/10 10:54:04;;;;;;;6.57;5.93;;;;;;;;;;6187974;28;20229;-67
2022/02/10 10:57:30;;;;;;;8.70;6.67;;;;;;;;;;6191434;28;20233;-65
2022/02/10 11:37:41;;;;;;;6.60;5.47;;;;;;;;;;6193745;28;20443;-67
2022/02/10 11:41:25;;;;;;;6.67;5.57;;;;;;;;;;6186060;28;20498;-66
2022/02/10 11:45:29;;;;;;;7.37;6.60;;;;;;;;;;6181037;28;20428;-64
2022/02/10 12:30:07;;;;;;;6.57;5.90;;;;;;;;;;6183248;28;20254;-66
2022/02/10 12:37:06;;;;;;;6.40;4.67;;;;;;;;;;6180148;28;20519;-66
2022/02/10 13:03:11;;;;;;;4.97;3.37;;;;;;;;;;6186642;28;20257;-65
2022/02/10 14:09:24;;;;;;;4.00;2.60;;;;;;;;;;6180079;28;21529;-66
2022/02/10 14:20:13;;;;;;;7.57;2.70;;;;;;;;;;6178669;28;20234;-65
2022/02/10 14:27:12;;;;;;;8.67;2.60;;;;;;;;;;6176616;28;20238;-65
2022/02/10 14:30:33;;;;;;;8.57;2.87;;;;;;;;;;6182259;28;20238;-65
2022/02/10 14:33:55;;;;;;;14.23;3.23;;;;;;;;;;6181745;28;20274;-65
2022/02/10 14:37:29;;;;;;;5.57;2.07;;;;;;;;;;6183271;28;20242;-64
2022/02/10 14:41:13;;;;;;;13.70;2.57;;;;;;;;;;6178675;28;21512;-65
2022/02/10 15:18:04;;;;;;;6.77;2.47;;;;;;;;;;6178808;28;20288;-64
2022/02/10 15:21:50;;;;;;;2.77;1.30;;;;;;;;;;6182408;28;20238;-65
2022/02/10 15:54:54;;;;;;;4.93;1.87;;;;;;;;;;6240097;28;20244;-65
2022/02/10 16:20:17;;;;;;;3.70;1.60;;;;;;;;;;6258874;28;20232;-67
2022/02/10 16:23:38;;;;;;;9.40;2.60;;;;;;;;;;6254054;28;20219;-68
2022/02/10 16:27:11;;;;;;;7.87;1.87;;;;;;;;;;6257561;28;20227;-65
2022/02/10 16:30:31;;;;;;;7.13;2.90;;;;;;;;;;6259385;28;20224;-64
2022/02/10 16:33:55;;;;;;;8.60;2.87;;;;;;;;;;6254138;28;20235;-64
2022/02/10 16:37:17;;;;;;;8.60;2.83;;;;;;;;;;6260172;28;20239;-65
2022/02/10 16:40:38;;;;;;;6.50;3.70;;;;;;;;;;6253368;28;20227;-66
2022/02/10 16:43:58;;;;;;;6.20;3.17;;;;;;;;;;6258983;28;20355;-65
2022/02/10 16:47:19;;;;;;;7.00;2.70;;;;;;;;;;6269566;28;20247;-65
2022/02/10 16:50:43;;;;;;;5.33;3.43;;;;;;;;;;6258478;28;20223;-63
2022/02/10 16:54:10;;;;;;;5.50;3.40;;;;;;;;;;6254618;28;20912;-65
2022/02/10 16:57:39;;;;;;;9.80;3.40;;;;;;;;;;6250535;28;20313;-65
2022/02/10 17:04:56;;;;;;;5.80;2.60;;;;;;;;;;6271359;28;20226;-63
2022/02/10 17:19:33;;;;;;;7.37;3.90;;;;;;;;;;6284348;28;20239;-65
2022/02/10 17:26:46;;;;;;;12.63;5.47;;;;;;;;;;6275596;28;20262;-64
2022/02/10 17:34:03;;;;;;;21.63;15.67;;;;;;;;;;6264287;28;20235;-65
2022/02/10 17:41:26;;;;;;;14.10;4.13;;;;;;;;;;6271256;28;20552;-66
2022/02/10 17:44:56;;;;;;;8.20;3.37;;;;;;;;;;6275042;28;20226;-65
2022/02/10 17:52:05;;;;;;;8.43;3.90;;;;;;;;;;6265140;28;20338;-65
2022/02/10 17:55:26;;;;;;;14.13;5.27;;;;;;;;;;6267091;28;20231;-65
2022/02/10 17:58:46;;;;;;;10.83;3.53;;;;;;;;;;6273816;28;20502;-66
2022/02/10 18:02:08;;;;;;;14.07;5.03;;;;;;;;;;6271929;28;20224;-65
2022/02/10 18:09:36;;;;;;;8.87;3.33;;;;;;;;;;6250442;28;20250;-65
2022/02/10 18:16:42;;;;;;;6.87;3.23;;;;;;;;;;6271376;28;20227;-66
2022/02/10 18:20:09;;;;;;;8.97;3.83;;;;;;;;;;6275104;28;20235;-66
2022/02/10 18:23:35;;;;;;;9.73;3.23;;;;;;;;;;6270696;28;20724;-64
2022/02/10 18:27:04;;;;;;;9.43;3.83;;;;;;;;;;6270185;28;20604;-65
2022/02/10 18:30:37;;;;;;;8.37;3.90;;;;;;;;;;6282989;28;20226;-65
2022/02/10 19:07:18;;;;;;;11.17;2.87;;;;;;;;;;6274991;28;20235;-66
2022/02/10 19:10:45;;;;;;;7.57;3.30;;;;;;;;;;6253452;28;20234;-65
2022/02/10 19:14:07;;;;;;;6.97;2.73;;;;;;;;;;6266157;28;22283;-64
2022/02/10 19:17:28;;;;;;;5.43;3.27;;;;;;;;;;6270723;28;20238;-65
2022/02/10 19:20:48;;;;;;;4.77;3.33;;;;;;;;;;6274117;28;20224;-66
2022/02/10 19:24:09;;;;;;;7.90;2.93;;;;;;;;;;6270668;28;20219;-66
2022/02/10 19:27:29;;;;;;;7.90;2.97;;;;;;;;;;6268588;28;20219;-64
2022/02/10 19:30:51;;;;;;;6.37;2.97;;;;;;;;;;6268462;28;20235;-65
2022/02/10 19:34:12;;;;;;;7.60;2.73;;;;;;;;;;6270025;28;20229;-64
2022/02/10 19:37:33;;;;;;;8.93;3.50;;;;;;;;;;6273627;28;20884;-64
2022/02/10 19:40:55;;;;;;;6.33;2.50;;;;;;;;;;6269803;28;20231;-66
2022/02/10 19:44:16;;;;;;;9.27;3.30;;;;;;;;;;6276250;28;20435;-65
2022/02/10 19:47:38;;;;;;;13.13;3.90;;;;;;;;;;6277682;28;20576;-65
2022/02/10 19:50:58;;;;;;;12.83;4.10;;;;;;;;;;6270123;28;20228;-65
2022/02/10 19:54:24;;;;;;;9.40;3.00;;;;;;;;;;6264170;28;20224;-63
2022/02/10 19:57:45;;;;;;;5.10;2.93;;;;;;;;;;6267323;28;20227;-66
2022/02/10 20:01:07;;;;;;;9.30;3.17;;;;;;;;;;6267508;28;20230;-67
2022/02/10 20:04:28;;;;;;;9.63;4.43;;;;;;;;;;6270835;28;20632;-65
2022/02/10 20:07:51;;;;;;;9.40;2.70;;;;;;;;;;6266910;28;20239;-65
2022/02/10 20:11:12;;;;;;;7.43;3.70;;;;;;;;;;6266977;28;20806;-64
2022/02/10 20:14:32;;;;;;;8.90;5.00;;;;;;;;;;6267986;28;20696;-64
2022/02/10 20:17:55;;;;;;;10.37;4.50;;;;;;;;;;6268181;28;20234;-66
2022/02/10 20:21:18;;;;;;;9.90;4.57;;;;;;;;;;6270297;28;20231;-67
2022/02/10 20:24:39;;;;;;;6.77;2.83;;;;;;;;;;6272584;28;20597;-67
2022/02/10 20:28:00;;;;;;;9.33;2.80;;;;;;;;;;6263944;28;20575;-65
2022/02/10 20:31:21;;;;;;;8.27;3.30;;;;;;;;;;6267683;28;20994;-66
2022/02/10 20:34:41;;;;;;;10.60;3.67;;;;;;;;;;6274211;28;20222;-66
2022/02/10 20:38:03;;;;;;;8.37;2.87;;;;;;;;;;6280125;28;20239;-66
2022/02/10 20:41:27;;;;;;;8.27;2.80;;;;;;;;;;6272659;28;20227;-65
2022/02/10 20:44:53;;;;;;;13.03;3.53;;;;;;;;;;6273561;28;20223;-66
2022/02/10 20:48:13;;;;;;;11.07;4.13;;;;;;;;;;6274515;28;20738;-67
2022/02/10 20:51:34;;;;;;;14.10;3.57;;;;;;;;;;6274531;28;20310;-67
2022/02/10 20:54:56;;;;;;;6.77;3.10;;;;;;;;;;6275826;28;20762;-64
2022/02/10 20:58:19;;;;;;;11.30;3.67;;;;;;;;;;6279325;28;20223;-68
2022/02/10 21:01:40;;;;;;;13.93;4.27;;;;;;;;;;6274030;28;20668;-66
2022/02/10 21:05:09;;;;;;;11.47;4.97;;;;;;;;;;6273275;28;20231;-69
2022/02/10 21:08:36;;;;;;;22.03;4.37;;;;;;;;;;6276550;28;20329;-67
2022/02/10 21:11:58;;;;;;;10.17;3.77;;;;;;;;;;6273641;28;20231;-68
2022/02/10 21:15:26;;;;;;;6.87;3.00;;;;;;;;;;6270387;28;20236;-67
2022/02/10 21:18:46;;;;;;;10.77;3.47;;;;;;;;;;6281195;28;20437;-66
2022/02/10 21:22:10;;;;;;;6.50;3.30;;;;;;;;;;6263641;28;22331;-66
2022/02/10 21:25:34;;;;;;;9.57;3.20;;;;;;;;;;6267135;28;20231;-66
2022/02/10 21:29:00;;;;;;;8.00;3.33;;;;;;;;;;6273510;28;20800;-66
2022/02/10 21:32:20;;;;;;;8.67;3.30;;;;;;;;;;6279966;28;20235;-66
2022/02/10 21:36:01;;;;;;;8.03;3.93;;;;;;;;;;6275910;28;20224;-67
2022/02/10 21:39:33;;;;;;;7.43;3.07;;;;;;;;;;6268074;28;20239;-64
2022/02/10 22:16:15;;;;;;;13.57;3.53;;;;;;;;;;6254168;28;20223;-65
2022/02/10 22:19:37;;;;;;;7.23;3.23;;;;;;;;;;6259587;28;20231;-65
2022/02/10 22:23:04;;;;;;;7.83;3.33;;;;;;;;;;6248749;28;20285;-65
2022/02/10 22:26:27;;;;;;;15.13;3.60;;;;;;;;;;6255058;28;20220;-65
2022/02/10 22:29:53;;;;;;;5.53;2.40;;;;;;;;;;6249823;28;20228;-65
2022/02/10 22:33:26;;;;;;;7.50;3.53;;;;;;;;;;6257700;28;20318;-65
2022/02/10 22:36:53;;;;;;;11.57;4.47;;;;;;;;;;6259718;28;20224;-65
2022/02/10 22:40:37;;;;;;;3.97;2.70;;;;;;;;;;6246708;28;20315;-64
2022/02/10 22:43:58;;;;;;;9.23;3.63;;;;;;;;;;6248939;28;20322;-65
2022/02/10 22:47:18;;;;;;;11.13;2.90;;;;;;;;;;6242304;28;20224;-65
2022/02/10 22:50:40;;;;;;;6.83;2.73;;;;;;;;;;6245609;28;20251;-66
2022/02/10 22:54:01;;;;;;;10.13;3.50;;;;;;;;;;6245875;28;20232;-64
2022/02/10 22:57:22;;;;;;;7.70;3.80;;;;;;;;;;6252780;28;20246;-65
2022/02/10 23:00:47;;;;;;;8.17;4.00;;;;;;;;;;6249444;28;20236;-65
2022/02/10 23:04:08;;;;;;;7.93;2.40;;;;;;;;;;6248886;28;20625;-65
2022/02/10 23:07:30;;;;;;;8.70;3.10;;;;;;;;;;6245202;28;20566;-64
2022/02/10 23:10:52;;;;;;;7.57;3.37;;;;;;;;;;6235539;28;20225;-65
2022/02/10 23:14:12;;;;;;;7.70;2.60;;;;;;;;;;6230031;28;20228;-64
2022/02/10 23:17:33;;;;;;;13.77;4.17;;;;;;;;;;6226050;28;20244;-64
2022/02/10 23:20:55;;;;;;;5.93;2.67;;;;;;;;;;6228490;28;20256;-64
2022/02/10 23:24:17;;;;;;;9.53;2.90;;;;;;;;;;6229653;28;20237;-65
2022/02/10 23:27:38;;;;;;;10.50;3.30;;;;;;;;;;6219800;28;20249;-63
2022/02/10 23:30:59;;;;;;;13.30;4.43;;;;;;;;;;6224292;28;20232;-65
2022/02/10 23:34:19;;;;;;;5.23;3.43;;;;;;;;;;6241814;28;20231;-65
2022/02/10 23:37:40;;;;;;;10.00;3.67;;;;;;;;;;6243438;28;20244;-65
2022/02/10 23:41:42;;;;;;;7.37;3.13;;;;;;;;;;6252210;28;20236;-65
2022/02/10 23:44:54;;;;;;;7.70;4.10;;;;;;;;;;6260205;28;20223;-65
2022/02/10 23:48:14;;;;;;;9.80;3.40;;;;;;;;;;6259113;28;20228;-65
2022/02/10 23:51:42;;;;;;;23.60;4.87;;;;;;;;;;6259729;28;20629;-65
2022/02/10 23:55:10;;;;;;;10.47;3.90;;;;;;;;;;6262361;28;20228;-64
2022/02/10 23:58:39;;;;;;;7.30;3.37;;;;;;;;;;6239762;28;20910;-63
